sensor_id;sensor_type;location;lat;lon;timestamp;pressure;altitude;pressure_sealevel;temperature;humidity
21706;BME280;11014;53.076;18.208;2023-04-23T00:02:06;100879.84;;;9.74;60.99
21706;BME280;11014;53.076;18.208;2023-04-23T00:04:36;100872.22;;;9.71;61.14
21706;BME280;11014;53.076;18.208;2023-04-23T00:07:06;100868.94;;;9.69;61.26
21706;BME280;11014;53.076;18.208;2023-04-23T00:09:36;100879.28;;;9.65;61.59
21706;BME280;11014;53.076;18.208;2023-04-23T00:12:06;100873.56;;;9.62;61.76
21706;BME280;11014;53.076;18.208;2023-04-23T00:14:35;100867.56;;;9.60;61.92
21706;BME280;11014;53.076;18.208;2023-04-23T00:17:03;100870.69;;;9.57;61.79
21706;BME280;11014;53.076;18.208;2023-04-23T00:19:32;100871.09;;;9.53;61.81
21706;BME280;11014;53.076;18.208;2023-04-23T00:22:01;100869.91;;;9.49;62.08
21706;BME280;11014;53.076;18.208;2023-04-23T00:24:30;100865.00;;;9.46;61.97
21706;BME280;11014;53.076;18.208;2023-04-23T00:26:59;100859.47;;;9.41;62.37
21706;BME280;11014;53.076;18.208;2023-04-23T00:29:28;100860.13;;;9.37;62.35
21706;BME280;11014;53.076;18.208;2023-04-23T00:31:57;100852.28;;;9.35;62.60
21706;BME280;11014;53.076;18.208;2023-04-23T00:34:25;100850.63;;;9.34;62.74
21706;BME280;11014;53.076;18.208;2023-04-23T00:36:54;100847.31;;;9.39;63.05
21706;BME280;11014;53.076;18.208;2023-04-23T00:39:22;100840.69;;;9.41;62.96
21706;BME280;11014;53.076;18.208;2023-04-23T00:41:51;100840.47;;;9.43;63.15
21706;BME280;11014;53.076;18.208;2023-04-23T00:44:20;100839.66;;;9.42;63.17
21706;BME280;11014;53.076;18.208;2023-04-23T00:46:50;100837.41;;;9.39;63.45
21706;BME280;11014;53.076;18.208;2023-04-23T00:49:20;100838.44;;;9.38;63.65
21706;BME280;11014;53.076;18.208;2023-04-23T00:51:49;100832.22;;;9.44;63.76
21706;BME280;11014;53.076;18.208;2023-04-23T00:54:18;100834.47;;;9.47;64.18
21706;BME280;11014;53.076;18.208;2023-04-23T00:56:47;100825.38;;;9.48;63.97
21706;BME280;11014;53.076;18.208;2023-04-23T00:59:16;100839.41;;;9.50;63.96
21706;BME280;11014;53.076;18.208;2023-04-23T01:01:47;100830.28;;;9.51;64.29
21706;BME280;11014;53.076;18.208;2023-04-23T01:04:16;100834.03;;;9.50;64.03
21706;BME280;11014;53.076;18.208;2023-04-23T01:06:47;100830.28;;;9.51;63.94
21706;BME280;11014;53.076;18.208;2023-04-23T01:09:15;100820.22;;;9.47;64.15
21706;BME280;11014;53.076;18.208;2023-04-23T01:11:48;100824.16;;;9.44;64.18
21706;BME280;11014;53.076;18.208;2023-04-23T01:14:18;100816.56;;;9.41;64.22
21706;BME280;11014;53.076;18.208;2023-04-23T01:16:46;100820.28;;;9.40;64.14
21706;BME280;11014;53.076;18.208;2023-04-23T01:19:15;100816.41;;;9.36;64.46
21706;BME280;11014;53.076;18.208;2023-04-23T01:21:44;100817.03;;;9.32;64.82
21706;BME280;11014;53.076;18.208;2023-04-23T01:24:13;100822.59;;;9.37;64.75
21706;BME280;11014;53.076;18.208;2023-04-23T01:26:42;100820.94;;;9.36;64.67
21706;BME280;11014;53.076;18.208;2023-04-23T01:29:12;100818.44;;;9.34;64.64
21706;BME280;11014;53.076;18.208;2023-04-23T01:31:42;100822.19;;;9.33;64.77
21706;BME280;11014;53.076;18.208;2023-04-23T01:34:11;100810.88;;;9.31;64.66
21706;BME280;11014;53.076;18.208;2023-04-23T01:36:41;100822.84;;;9.29;64.85
21706;BME280;11014;53.076;18.208;2023-04-23T01:39:10;100814.19;;;9.27;64.78
21706;BME280;11014;53.076;18.208;2023-04-23T01:41:40;100816.50;;;9.23;64.87
21706;BME280;11014;53.076;18.208;2023-04-23T01:44:09;100813.81;;;9.23;64.65
21706;BME280;11014;53.076;18.208;2023-04-23T01:46:38;100807.84;;;9.21;64.81
21706;BME280;11014;53.076;18.208;2023-04-23T01:49:07;100809.91;;;9.19;64.82
21706;BME280;11014;53.076;18.208;2023-04-23T01:51:36;100814.44;;;9.19;65.04
21706;BME280;11014;53.076;18.208;2023-04-23T01:54:04;100816.13;;;9.13;65.38
21706;BME280;11014;53.076;18.208;2023-04-23T01:56:33;100813.03;;;9.16;65.19
21706;BME280;11014;53.076;18.208;2023-04-23T01:59:03;100802.59;;;9.02;65.47
21706;BME280;11014;53.076;18.208;2023-04-23T02:01:44;100808.91;;;9.14;65.72
21706;BME280;11014;53.076;18.208;2023-04-23T02:04:15;100802.72;;;9.13;65.47
21706;BME280;11014;53.076;18.208;2023-04-23T02:06:47;100802.97;;;9.12;65.28
21706;BME280;11014;53.076;18.208;2023-04-23T02:09:17;100802.13;;;9.11;65.32
21706;BME280;11014;53.076;18.208;2023-04-23T02:11:47;100805.84;;;9.10;65.49
21706;BME280;11014;53.076;18.208;2023-04-23T02:14:15;100798.03;;;9.09;65.43
21706;BME280;11014;53.076;18.208;2023-04-23T02:16:44;100791.84;;;9.08;65.46
21706;BME280;11014;53.076;18.208;2023-04-23T02:19:14;100788.56;;;9.06;65.62
21706;BME280;11014;53.076;18.208;2023-04-23T02:21:44;100785.91;;;9.06;65.60
21706;BME280;11014;53.076;18.208;2023-04-23T02:24:12;100787.50;;;9.07;65.97
21706;BME280;11014;53.076;18.208;2023-04-23T02:26:41;100788.56;;;9.06;65.88
21706;BME280;11014;53.076;18.208;2023-04-23T02:29:09;100784.25;;;9.05;66.06
21706;BME280;11014;53.076;18.208;2023-04-23T02:31:38;100780.53;;;9.06;66.28
21706;BME280;11014;53.076;18.208;2023-04-23T02:34:06;100780.53;;;9.06;65.81
21706;BME280;11014;53.076;18.208;2023-04-23T02:36:35;100785.28;;;9.04;66.13
21706;BME280;11014;53.076;18.208;2023-04-23T02:39:04;100783.63;;;9.03;65.97
21706;BME280;11014;53.076;18.208;2023-04-23T02:41:33;100779.94;;;9.04;66.04
21706;BME280;11014;53.076;18.208;2023-04-23T02:44:02;100785.28;;;9.04;66.05
21706;BME280;11014;53.076;18.208;2023-04-23T02:46:44;100776.63;;;9.02;65.93
21706;BME280;11014;53.076;18.208;2023-04-23T02:49:16;100782.22;;;9.01;66.07
21706;BME280;11014;53.076;18.208;2023-04-23T02:51:45;100779.97;;;8.98;66.03
21706;BME280;11014;53.076;18.208;2023-04-23T02:54:15;100782.88;;;8.96;65.80
21706;BME280;11014;53.076;18.208;2023-04-23T02:56:44;100774.84;;;8.96;65.83
21706;BME280;11014;53.076;18.208;2023-04-23T02:59:12;100774.22;;;8.94;66.15
21706;BME280;11014;53.076;18.208;2023-04-23T03:01:41;100772.59;;;8.93;66.03
21706;BME280;11014;53.076;18.208;2023-04-23T03:04:11;100774.63;;;8.91;66.33
21706;BME280;11014;53.076;18.208;2023-04-23T03:06:40;100771.75;;;8.92;66.02
21706;BME280;11014;53.076;18.208;2023-04-23T03:09:09;100776.28;;;8.92;66.18
21706;BME280;11014;53.076;18.208;2023-04-23T03:11:38;100773.84;;;8.90;66.19
21706;BME280;11014;53.076;18.208;2023-04-23T03:14:07;100771.38;;;8.89;66.04
21706;BME280;11014;53.076;18.208;2023-04-23T03:16:36;100783.09;;;8.88;66.02
21706;BME280;11014;53.076;18.208;2023-04-23T03:19:06;100778.81;;;8.87;66.00
21706;BME280;11014;53.076;18.208;2023-04-23T03:21:34;100773.66;;;8.85;65.94
21706;BME280;11014;53.076;18.208;2023-04-23T03:24:03;100773.28;;;8.82;65.91
21706;BME280;11014;53.076;18.208;2023-04-23T03:26:33;100757.03;;;8.77;65.99
21706;BME280;11014;53.076;18.208;2023-04-23T03:29:02;100760.72;;;8.76;65.93
21706;BME280;11014;53.076;18.208;2023-04-23T03:31:31;100756.63;;;8.73;66.07
21706;BME280;11014;53.076;18.208;2023-04-23T03:33:59;100755.81;;;8.73;66.38
21706;BME280;11014;53.076;18.208;2023-04-23T03:36:33;100761.16;;;8.73;66.24
21706;BME280;11014;53.076;18.208;2023-04-23T03:39:02;100757.88;;;8.71;66.13
21706;BME280;11014;53.076;18.208;2023-04-23T03:41:43;100761.59;;;8.70;66.14
21706;BME280;11014;53.076;18.208;2023-04-23T03:44:18;100758.50;;;8.66;66.16
21706;BME280;11014;53.076;18.208;2023-04-23T03:46:47;100764.91;;;8.65;66.15
21706;BME280;11014;53.076;18.208;2023-04-23T03:49:24;100759.75;;;8.64;66.18
21706;BME280;11014;53.076;18.208;2023-04-23T03:51:55;100757.91;;;8.64;65.94
21706;BME280;11014;53.076;18.208;2023-04-23T03:54:24;100755.03;;;8.66;66.06
21706;BME280;11014;53.076;18.208;2023-04-23T03:57:08;100752.97;;;8.68;66.34
21706;BME280;11014;53.076;18.208;2023-04-23T03:59:42;100752.13;;;8.67;66.17
21706;BME280;11014;53.076;18.208;2023-04-23T04:02:36;100752.91;;;8.74;66.24
21706;BME280;11014;53.076;18.208;2023-04-23T04:05:06;100756.22;;;8.70;66.22
21706;BME280;11014;53.076;18.208;2023-04-23T04:07:35;100759.94;;;8.69;66.24
21706;BME280;11014;53.076;18.208;2023-04-23T04:10:05;100756.22;;;8.70;66.09
21706;BME280;11014;53.076;18.208;2023-04-23T04:12:34;100753.94;;;8.73;66.15
21706;BME280;11014;53.076;18.208;2023-04-23T04:15:03;100753.31;;;8.78;66.33
21706;BME280;11014;53.076;18.208;2023-04-23T04:17:32;100754.53;;;8.82;66.39
21706;BME280;11014;53.076;18.208;2023-04-23T04:20:01;100754.69;;;8.87;66.56
21706;BME280;11014;53.076;18.208;2023-04-23T04:22:30;100763.50;;;8.94;66.89
21706;BME280;11014;53.076;18.208;2023-04-23T04:24:58;100758.94;;;9.01;67.12
21706;BME280;11014;53.076;18.208;2023-04-23T04:27:27;100764.38;;;9.13;67.00
21706;BME280;11014;53.076;18.208;2023-04-23T04:29:55;100756.72;;;9.23;67.28
21706;BME280;11014;53.076;18.208;2023-04-23T04:32:23;100753.75;;;9.31;67.02
21706;BME280;11014;53.076;18.208;2023-04-23T04:34:53;100753.69;;;9.37;67.18
21706;BME280;11014;53.076;18.208;2023-04-23T04:37:22;100759.38;;;9.47;67.24
21706;BME280;11014;53.076;18.208;2023-04-23T04:39:50;100748.97;;;9.58;67.42
21706;BME280;11014;53.076;18.208;2023-04-23T04:42:22;100744.97;;;9.67;67.76
21706;BME280;11014;53.076;18.208;2023-04-23T04:44:50;100751.69;;;9.76;67.63
21706;BME280;11014;53.076;18.208;2023-04-23T04:47:22;100754.44;;;10.05;67.51
21706;BME280;11014;53.076;18.208;2023-04-23T04:49:50;100750.00;;;9.99;67.07
21706;BME280;11014;53.076;18.208;2023-04-23T04:52:19;100746.63;;;10.04;67.66
21706;BME280;11014;53.076;18.208;2023-04-23T04:54:48;100750.69;;;10.13;67.81
21706;BME280;11014;53.076;18.208;2023-04-23T04:57:17;100743.50;;;10.25;68.27
21706;BME280;11014;53.076;18.208;2023-04-23T04:59:47;100741.13;;;10.35;68.16
21706;BME280;11014;53.076;18.208;2023-04-23T05:02:16;100738.59;;;10.40;68.38
21706;BME280;11014;53.076;18.208;2023-04-23T05:04:45;100739.75;;;10.44;68.53
21706;BME280;11014;53.076;18.208;2023-04-23T05:07:13;100739.59;;;10.57;68.85
21706;BME280;11014;53.076;18.208;2023-04-23T05:09:41;100739.56;;;10.76;68.58
21706;BME280;11014;53.076;18.208;2023-04-23T05:12:12;100736.66;;;10.89;68.33
21706;BME280;11014;53.076;18.208;2023-04-23T05:14:40;100735.63;;;11.01;68.39
21706;BME280;11014;53.076;18.208;2023-04-23T05:17:09;100739.19;;;11.13;68.16
21706;BME280;11014;53.076;18.208;2023-04-23T05:19:53;100738.38;;;11.24;68.04
21706;BME280;11014;53.076;18.208;2023-04-23T05:22:22;100737.78;;;11.34;68.25
21706;BME280;11014;53.076;18.208;2023-04-23T05:24:50;100739.47;;;11.47;67.85
21706;BME280;11014;53.076;18.208;2023-04-23T05:27:19;100741.91;;;11.60;67.95
21706;BME280;11014;53.076;18.208;2023-04-23T05:29:47;100734.44;;;11.73;67.97
21706;BME280;11014;53.076;18.208;2023-04-23T05:32:16;100736.88;;;11.86;67.57
21706;BME280;11014;53.076;18.208;2023-04-23T05:34:45;100742.03;;;12.00;67.45
21706;BME280;11014;53.076;18.208;2023-04-23T05:37:14;100739.09;;;12.13;67.19
21706;BME280;11014;53.076;18.208;2023-04-23T05:39:42;100740.44;;;12.27;67.12
21706;BME280;11014;53.076;18.208;2023-04-23T05:42:11;100733.16;;;12.39;66.84
21706;BME280;11014;53.076;18.208;2023-04-23T05:44:40;100734.50;;;12.53;66.68
21706;BME280;11014;53.076;18.208;2023-04-23T05:47:12;100742.31;;;12.66;66.65
21706;BME280;11014;53.076;18.208;2023-04-23T05:49:41;100732.59;;;12.82;66.35
21706;BME280;11014;53.076;18.208;2023-04-23T05:52:09;100735.03;;;12.95;66.05
21706;BME280;11014;53.076;18.208;2023-04-23T05:54:38;100741.25;;;13.12;65.63
21706;BME280;11014;53.076;18.208;2023-04-23T05:57:09;100733.66;;;13.26;65.16
21706;BME280;11014;53.076;18.208;2023-04-23T05:59:37;100730.41;;;13.40;64.78
21706;BME280;11014;53.076;18.208;2023-04-23T06:02:07;100734.63;;;13.53;64.06
21706;BME280;11014;53.076;18.208;2023-04-23T06:04:36;100720.78;;;13.66;63.01
21706;BME280;11014;53.076;18.208;2023-04-23T06:07:05;100724.53;;;13.82;62.48
21706;BME280;11014;53.076;18.208;2023-04-23T06:09:34;100729.97;;;14.03;61.59
21706;BME280;11014;53.076;18.208;2023-04-23T06:12:03;100719.84;;;14.15;60.85
21706;BME280;11014;53.076;18.208;2023-04-23T06:14:31;100725.22;;;14.32;59.68
21706;BME280;11014;53.076;18.208;2023-04-23T06:17:00;100723.06;;;14.56;58.48
21706;BME280;11014;53.076;18.208;2023-04-23T06:19:29;100718.88;;;14.70;57.38
21706;BME280;11014;53.076;18.208;2023-04-23T06:21:58;100723.38;;;14.86;56.42
21706;BME280;11014;53.076;18.208;2023-04-23T06:24:26;100718.66;;;15.03;55.98
21706;BME280;11014;53.076;18.208;2023-04-23T06:26:55;100719.34;;;15.20;55.39
21706;BME280;11014;53.076;18.208;2023-04-23T06:29:25;100715.38;;;15.33;55.16
21706;BME280;11014;53.076;18.208;2023-04-23T06:32:02;100712.56;;;15.50;54.06
21706;BME280;11014;53.076;18.208;2023-04-23T06:34:30;100726.22;;;15.65;53.67
21706;BME280;11014;53.076;18.208;2023-04-23T06:37:24;100717.69;;;15.93;52.15
21706;BME280;11014;53.076;18.208;2023-04-23T06:40:25;100713.81;;;16.36;51.28
21706;BME280;11014;53.076;18.208;2023-04-23T06:43:14;100710.81;;;16.32;50.91
21706;BME280;11014;53.076;18.208;2023-04-23T06:46:16;100706.53;;;16.46;50.95
21706;BME280;11014;53.076;18.208;2023-04-23T06:48:45;100708.47;;;16.56;50.35
21706;BME280;11014;53.076;18.208;2023-04-23T06:51:14;100711.47;;;16.70;50.45
21706;BME280;11014;53.076;18.208;2023-04-23T06:53:43;100706.34;;;16.83;49.94
21706;BME280;11014;53.076;18.208;2023-04-23T06:56:12;100708.28;;;16.98;49.80
21706;BME280;11014;53.076;18.208;2023-04-23T06:58:41;100704.47;;;17.14;49.11
21706;BME280;11014;53.076;18.208;2023-04-23T07:01:18;100706.66;;;17.32;49.15
21706;BME280;11014;53.076;18.208;2023-04-23T07:03:47;100700.09;;;17.43;48.52
21706;BME280;11014;53.076;18.208;2023-04-23T07:06:18;100706.66;;;17.57;48.15
21706;BME280;11014;53.076;18.208;2023-04-23T07:08:47;100701.22;;;17.67;47.33
21706;BME280;11014;53.076;18.208;2023-04-23T07:11:40;100692.97;;;17.93;46.71
21706;BME280;11014;53.076;18.208;2023-04-23T07:14:09;100693.50;;;18.00;46.95
21706;BME280;11014;53.076;18.208;2023-04-23T07:16:37;100695.09;;;18.11;45.80
21706;BME280;11014;53.076;18.208;2023-04-23T07:19:06;100689.03;;;18.24;45.55
21706;BME280;11014;53.076;18.208;2023-04-23T07:21:34;100683.00;;;18.37;46.30
21706;BME280;11014;53.076;18.208;2023-04-23T07:24:03;100691.13;;;18.52;46.22
21706;BME280;11014;53.076;18.208;2023-04-23T07:26:34;100689.97;;;18.63;45.62
21706;BME280;11014;53.076;18.208;2023-04-23T07:29:04;100679.53;;;18.75;46.04
21706;BME280;11014;53.076;18.208;2023-04-23T07:31:35;100689.19;;;18.91;44.92
21706;BME280;11014;53.076;18.208;2023-04-23T07:34:04;100677.94;;;19.03;45.39
21706;BME280;11014;53.076;18.208;2023-04-23T07:36:33;100677.03;;;19.18;45.56
21706;BME280;11014;53.076;18.208;2023-04-23T07:39:02;100676.88;;;19.33;44.41
21706;BME280;11014;53.076;18.208;2023-04-23T07:41:32;100676.78;;;19.48;43.18
21706;BME280;11014;53.076;18.208;2023-04-23T07:44:01;100672.22;;;19.62;42.89
21706;BME280;11014;53.076;18.208;2023-04-23T07:46:29;100669.94;;;19.74;42.78
21706;BME280;11014;53.076;18.208;2023-04-23T07:48:58;100667.03;;;19.89;42.89
21706;BME280;11014;53.076;18.208;2023-04-23T07:51:27;100671.78;;;20.02;42.26
21706;BME280;11014;53.076;18.208;2023-04-23T07:53:55;100674.06;;;20.14;41.72
21706;BME280;11014;53.076;18.208;2023-04-23T07:56:28;100661.97;;;20.25;41.90
21706;BME280;11014;53.076;18.208;2023-04-23T07:58:59;100661.03;;;20.35;43.16
21706;BME280;11014;53.076;18.208;2023-04-23T08:01:28;100650.78;;;20.45;42.47
21706;BME280;11014;53.076;18.208;2023-04-23T08:03:57;100651.94;;;20.58;41.62
21706;BME280;11014;53.076;18.208;2023-04-23T08:06:27;100651.19;;;20.71;41.90
21706;BME280;11014;53.076;18.208;2023-04-23T08:09:04;100652.88;;;20.86;41.15
21706;BME280;11014;53.076;18.208;2023-04-23T08:11:33;100651.91;;;20.95;40.30
21706;BME280;11014;53.076;18.208;2023-04-23T08:14:02;100654.13;;;21.12;39.87
21706;BME280;11014;53.076;18.208;2023-04-23T08:16:31;100648.16;;;21.23;40.06
21706;BME280;11014;53.076;18.208;2023-04-23T08:19:00;100638.69;;;21.35;39.56
21706;BME280;11014;53.076;18.208;2023-04-23T08:21:33;100641.75;;;21.47;39.35
21706;BME280;11014;53.076;18.208;2023-04-23T08:24:02;100638.00;;;21.56;39.37
21706;BME280;11014;53.076;18.208;2023-04-23T08:26:32;100636.91;;;21.71;40.95
21706;BME280;11014;53.076;18.208;2023-04-23T08:29:04;100622.91;;;21.86;38.50
21706;BME280;11014;53.076;18.208;2023-04-23T08:31:33;100625.03;;;22.03;38.55
21706;BME280;11014;53.076;18.208;2023-04-23T08:34:08;100636.47;;;22.18;37.99
21706;BME280;11014;53.076;18.208;2023-04-23T08:36:37;100626.94;;;22.29;37.67
21706;BME280;11014;53.076;18.208;2023-04-23T08:39:06;100629.13;;;22.41;37.59
21706;BME280;11014;53.076;18.208;2023-04-23T08:41:42;100629.69;;;22.52;36.85
21706;BME280;11014;53.076;18.208;2023-04-23T08:44:20;100617.38;;;22.63;37.21
21706;BME280;11014;53.076;18.208;2023-04-23T08:46:52;100616.66;;;22.71;36.26
21706;BME280;11014;53.076;18.208;2023-04-23T08:49:21;100616.44;;;22.81;35.00
21706;BME280;11014;53.076;18.208;2023-04-23T08:51:52;100609.59;;;22.92;36.00
21706;BME280;11014;53.076;18.208;2023-04-23T08:54:26;100609.47;;;23.28;34.72
21706;BME280;11014;53.076;18.208;2023-04-23T08:56:56;100617.63;;;23.19;35.06
21706;BME280;11014;53.076;18.208;2023-04-23T08:59:28;100619.09;;;23.25;34.65
21706;BME280;11014;53.076;18.208;2023-04-23T09:01:57;100604.97;;;23.32;34.58
21706;BME280;11014;53.076;18.208;2023-04-23T09:04:29;100603.09;;;23.41;35.17
21706;BME280;11014;53.076;18.208;2023-04-23T09:06:58;100603.63;;;23.51;35.02
21706;BME280;11014;53.076;18.208;2023-04-23T09:09:28;100602.38;;;23.57;33.06
21706;BME280;11014;53.076;18.208;2023-04-23T09:11:57;100592.72;;;23.69;33.40
21706;BME280;11014;53.076;18.208;2023-04-23T09:14:26;100597.53;;;23.72;31.47
21706;BME280;11014;53.076;18.208;2023-04-23T09:16:54;100595.34;;;23.82;32.11
21706;BME280;11014;53.076;18.208;2023-04-23T09:19:34;100578.88;;;23.91;31.90
21706;BME280;11014;53.076;18.208;2023-04-23T09:22:06;100593.59;;;24.03;32.38
21706;BME280;11014;53.076;18.208;2023-04-23T09:24:35;100596.41;;;24.12;33.76
21706;BME280;11014;53.076;18.208;2023-04-23T09:27:03;100574.44;;;24.21;31.03
21706;BME280;11014;53.076;18.208;2023-04-23T09:29:33;100584.75;;;24.32;30.42
21706;BME280;11014;53.076;18.208;2023-04-23T09:32:10;100576.72;;;24.44;30.73
21706;BME280;11014;53.076;18.208;2023-04-23T09:34:39;100583.97;;;24.49;30.29
21706;BME280;11014;53.076;18.208;2023-04-23T09:37:08;100568.13;;;24.54;30.40
21706;BME280;11014;53.076;18.208;2023-04-23T09:40:04;100569.41;;;24.74;29.67
21706;BME280;11014;53.076;18.208;2023-04-23T09:42:36;100563.91;;;24.74;30.02
21706;BME280;11014;53.076;18.208;2023-04-23T09:45:06;100570.53;;;24.82;30.12
21706;BME280;11014;53.076;18.208;2023-04-23T09:47:46;100567.31;;;24.88;29.41
21706;BME280;11014;53.076;18.208;2023-04-23T09:50:16;100561.13;;;25.00;30.12
21706;BME280;11014;53.076;18.208;2023-04-23T09:52:44;100560.00;;;25.01;29.45
21706;BME280;11014;53.076;18.208;2023-04-23T09:55:13;100550.91;;;25.09;28.73
21706;BME280;11014;53.076;18.208;2023-04-23T09:57:42;100541.19;;;25.11;29.90
21706;BME280;11014;53.076;18.208;2023-04-23T10:00:18;100555.56;;;25.17;27.70
21706;BME280;11014;53.076;18.208;2023-04-23T10:02:49;100538.41;;;25.20;28.34
21706;BME280;11014;53.076;18.208;2023-04-23T10:05:20;100536.19;;;25.13;27.60
21706;BME280;11014;53.076;18.208;2023-04-23T10:07:56;100536.13;;;25.22;29.41
21706;BME280;11014;53.076;18.208;2023-04-23T10:10:25;100539.22;;;25.20;29.33
21706;BME280;11014;53.076;18.208;2023-04-23T10:12:53;100535.88;;;25.06;28.62
21706;BME280;11014;53.076;18.208;2023-04-23T10:15:25;100525.34;;;25.08;28.59
21706;BME280;11014;53.076;18.208;2023-04-23T10:17:54;100536.81;;;25.19;28.87
21706;BME280;11014;53.076;18.208;2023-04-23T10:20:24;100525.94;;;25.22;28.35
21706;BME280;11014;53.076;18.208;2023-04-23T10:22:54;100521.41;;;25.26;28.51
21706;BME280;11014;53.076;18.208;2023-04-23T10:25:24;100523.16;;;25.31;29.36
21706;BME280;11014;53.076;18.208;2023-04-23T10:27:54;100511.50;;;25.34;27.59
21706;BME280;11014;53.076;18.208;2023-04-23T10:30:24;100519.94;;;25.29;26.92
21706;BME280;11014;53.076;18.208;2023-04-23T10:32:52;100508.38;;;25.15;27.75
21706;BME280;11014;53.076;18.208;2023-04-23T10:35:22;100513.22;;;25.18;26.98
21706;BME280;11014;53.076;18.208;2023-04-23T10:37:51;100508.66;;;25.22;26.63
21706;BME280;11014;53.076;18.208;2023-04-23T10:40:28;100504.53;;;25.37;26.68
21706;BME280;11014;53.076;18.208;2023-04-23T10:42:58;100513.13;;;25.35;27.23
21706;BME280;11014;53.076;18.208;2023-04-23T10:45:29;100507.75;;;25.47;27.77
21706;BME280;11014;53.076;18.208;2023-04-23T10:47:59;100494.69;;;25.65;27.96
21706;BME280;11014;53.076;18.208;2023-04-23T10:50:34;100488.84;;;25.66;27.40
21706;BME280;11014;53.076;18.208;2023-04-23T10:53:30;100499.66;;;25.71;27.46
21706;BME280;11014;53.076;18.208;2023-04-23T10:56:08;100484.66;;;25.89;28.09
21706;BME280;11014;53.076;18.208;2023-04-23T10:58:47;100500.53;;;26.05;27.52
21706;BME280;11014;53.076;18.208;2023-04-23T11:01:17;100486.78;;;26.05;26.81
21706;BME280;11014;53.076;18.208;2023-04-23T11:03:50;100480.41;;;26.13;27.81
21706;BME280;11014;53.076;18.208;2023-04-23T11:09:35;100476.41;;;26.43;28.26
21706;BME280;11014;53.076;18.208;2023-04-23T11:14:55;100469.56;;;26.49;26.06
21706;BME280;11014;53.076;18.208;2023-04-23T11:20:23;100469.81;;;26.68;26.24
21706;BME280;11014;53.076;18.208;2023-04-23T11:22:52;100463.09;;;26.45;25.59
21706;BME280;11014;53.076;18.208;2023-04-23T11:25:25;100460.25;;;26.54;25.11
21706;BME280;11014;53.076;18.208;2023-04-23T11:27:56;100468.44;;;26.62;24.33
21706;BME280;11014;53.076;18.208;2023-04-23T11:30:35;100467.94;;;26.48;24.33
21706;BME280;11014;53.076;18.208;2023-04-23T11:33:08;100448.19;;;26.46;23.50
21706;BME280;11014;53.076;18.208;2023-04-23T11:35:36;100453.53;;;26.63;24.46
21706;BME280;11014;53.076;18.208;2023-04-23T11:38:08;100460.00;;;26.79;25.14
21706;BME280;11014;53.076;18.208;2023-04-23T11:40:37;100449.44;;;26.81;24.58
21706;BME280;11014;53.076;18.208;2023-04-23T11:43:07;100443.47;;;26.79;23.53
21706;BME280;11014;53.076;18.208;2023-04-23T11:45:36;100450.59;;;26.92;24.46
21706;BME280;11014;53.076;18.208;2023-04-23T11:48:19;100453.13;;;27.10;24.74
21706;BME280;11014;53.076;18.208;2023-04-23T11:50:48;100446.44;;;27.11;24.31
21706;BME280;11014;53.076;18.208;2023-04-23T11:53:17;100446.81;;;27.21;24.45
21706;BME280;11014;53.076;18.208;2023-04-23T11:55:48;100444.50;;;27.11;22.93
21706;BME280;11014;53.076;18.208;2023-04-23T11:58:16;100447.16;;;27.08;23.72
21706;BME280;11014;53.076;18.208;2023-04-23T12:00:45;100449.63;;;26.76;22.96
21706;BME280;11014;53.076;18.208;2023-04-23T12:03:13;100448.97;;;26.91;24.42
21706;BME280;11014;53.076;18.208;2023-04-23T12:05:44;100446.22;;;26.91;24.69
21706;BME280;11014;53.076;18.208;2023-04-23T12:08:17;100439.09;;;27.02;24.75
21706;BME280;11014;53.076;18.208;2023-04-23T12:10:53;100435.19;;;27.28;25.37
21706;BME280;11014;53.076;18.208;2023-04-23T12:13:23;100434.22;;;27.72;24.78
21706;BME280;11014;53.076;18.208;2023-04-23T12:15:55;100433.72;;;28.81;23.39
21706;BME280;11014;53.076;18.208;2023-04-23T12:21:11;100429.41;;;31.36;19.30
21706;BME280;11014;53.076;18.208;2023-04-23T12:23:41;100419.06;;;31.93;20.64
21706;BME280;11014;53.076;18.208;2023-04-23T12:26:37;100402.41;;;33.17;20.13
21706;BME280;11014;53.076;18.208;2023-04-23T12:29:07;100411.66;;;34.18;18.86
21706;BME280;11014;53.076;18.208;2023-04-23T12:32:02;100396.97;;;35.31;17.53
21706;BME280;11014;53.076;18.208;2023-04-23T12:35:01;100396.50;;;35.53;16.97
21706;BME280;11014;53.076;18.208;2023-04-23T12:37:35;100397.91;;;36.07;17.06
21706;BME280;11014;53.076;18.208;2023-04-23T12:40:07;100385.94;;;37.13;16.63
21706;BME280;11014;53.076;18.208;2023-04-23T12:42:36;100372.25;;;37.86;16.81
21706;BME280;11014;53.076;18.208;2023-04-23T12:45:07;100374.34;;;38.63;15.40
21706;BME280;11014;53.076;18.208;2023-04-23T12:47:38;100385.78;;;38.98;15.01
21706;BME280;11014;53.076;18.208;2023-04-23T12:50:07;100387.22;;;39.49;14.81
21706;BME280;11014;53.076;18.208;2023-04-23T12:52:36;100368.03;;;39.84;14.60
21706;BME280;11014;53.076;18.208;2023-04-23T12:55:08;100387.31;;;40.21;14.44
21706;BME280;11014;53.076;18.208;2023-04-23T12:57:41;100387.66;;;40.39;14.30
21706;BME280;11014;53.076;18.208;2023-04-23T13:00:13;100373.53;;;40.59;13.34
21706;BME280;11014;53.076;18.208;2023-04-23T13:02:51;100363.56;;;40.87;13.76
21706;BME280;11014;53.076;18.208;2023-04-23T13:05:20;100351.00;;;41.20;14.14
21706;BME280;11014;53.076;18.208;2023-04-23T13:07:54;100348.16;;;41.77;14.53
21706;BME280;11014;53.076;18.208;2023-04-23T13:10:24;100366.09;;;42.09;13.57
21706;BME280;11014;53.076;18.208;2023-04-23T13:12:56;100353.88;;;41.86;12.76
21706;BME280;11014;53.076;18.208;2023-04-23T13:15:24;100357.19;;;41.56;13.44